sensor_id;sensor_type;location;lat;lon;timestamp;P1;durP1;ratioP1;P2;durP2;ratioP2
56943;SDS011;42848;42.524;12.052;2022-12-22T00:02:43;17.95;;;12.68;;
56943;SDS011;42848;42.524;12.052;2022-12-22T00:05:27;19.77;;;13.10;;
56943;SDS011;42848;42.524;12.052;2022-12-22T00:08:11;20.50;;;13.45;;
56943;SDS011;42848;42.524;12.052;2022-12-22T00:10:55;20.20;;;13.10;;
56943;SDS011;42848;42.524;12.052;2022-12-22T00:13:40;19.92;;;12.38;;
56943;SDS011;42848;42.524;12.052;2022-12-22T00:16:28;19.58;;;12.93;;
56943;SDS011;42848;42.524;12.052;2022-12-22T00:19:15;21.85;;;13.70;;
56943;SDS011;42848;42.524;12.052;2022-12-22T00:22:00;21.17;;;13.57;;
56943;SDS011;42848;42.524;12.052;2022-12-22T00:24:50;19.33;;;12.80;;
56943;SDS011;42848;42.524;12.052;2022-12-22T00:27:34;22.57;;;13.23;;
56943;SDS011;42848;42.524;12.052;2022-12-22T00:30:18;21.42;;;13.27;;
56943;SDS011;42848;42.524;12.052;2022-12-22T00:33:03;21.17;;;13.13;;
56943;SDS011;42848;42.524;12.052;2022-12-22T00:35:48;20.42;;;13.15;;
56943;SDS011;42848;42.524;12.052;2022-12-22T00:38:33;20.85;;;12.50;;
56943;SDS011;42848;42.524;12.052;2022-12-22T00:41:17;20.20;;;12.77;;
56943;SDS011;42848;42.524;12.052;2022-12-22T00:44:01;18.70;;;12.10;;
56943;SDS011;42848;42.524;12.052;2022-12-22T00:46:45;16.90;;;11.30;;
56943;SDS011;42848;42.524;12.052;2022-12-22T00:49:30;17.52;;;12.02;;
56943;SDS011;42848;42.524;12.052;2022-12-22T00:52:17;16.73;;;11.50;;
56943;SDS011;42848;42.524;12.052;2022-12-22T00:55:11;19.05;;;12.60;;
56943;SDS011;42848;42.524;12.052;2022-12-22T00:57:56;18.23;;;12.68;;
56943;SDS011;42848;42.524;12.052;2022-12-22T01:00:41;18.58;;;12.75;;
56943;SDS011;42848;42.524;12.052;2022-12-22T01:03:25;20.63;;;13.50;;
56943;SDS011;42848;42.524;12.052;2022-12-22T01:06:09;19.17;;;12.43;;
56943;SDS011;42848;42.524;12.052;2022-12-22T01:08:53;18.95;;;13.30;;
56943;SDS011;42848;42.524;12.052;2022-12-22T01:14:22;20.35;;;12.00;;
56943;SDS011;42848;42.524;12.052;2022-12-22T01:17:07;19.73;;;13.10;;
56943;SDS011;42848;42.524;12.052;2022-12-22T01:19:52;19.48;;;12.68;;
56943;SDS011;42848;42.524;12.052;2022-12-22T01:22:36;18.88;;;12.73;;
56943;SDS011;42848;42.524;12.052;2022-12-22T01:25:21;18.80;;;13.27;;
56943;SDS011;42848;42.524;12.052;2022-12-22T01:28:05;18.33;;;12.20;;
56943;SDS011;42848;42.524;12.052;2022-12-22T01:30:49;19.15;;;12.90;;
56943;SDS011;42848;42.524;12.052;2022-12-22T01:33:33;18.17;;;11.93;;
56943;SDS011;42848;42.524;12.052;2022-12-22T01:36:17;19.27;;;12.77;;
56943;SDS011;42848;42.524;12.052;2022-12-22T01:39:01;16.98;;;12.18;;
56943;SDS011;42848;42.524;12.052;2022-12-22T01:41:46;20.83;;;13.60;;
56943;SDS011;42848;42.524;12.052;2022-12-22T01:44:32;17.98;;;11.73;;
56943;SDS011;42848;42.524;12.052;2022-12-22T01:50:14;18.00;;;12.35;;
56943;SDS011;42848;42.524;12.052;2022-12-22T01:53:00;19.10;;;12.52;;
56943;SDS011;42848;42.524;12.052;2022-12-22T01:55:46;19.63;;;12.75;;
56943;SDS011;42848;42.524;12.052;2022-12-22T01:58:34;20.45;;;12.60;;
56943;SDS011;42848;42.524;12.052;2022-12-22T02:01:23;18.38;;;12.48;;
56943;SDS011;42848;42.524;12.052;2022-12-22T02:04:08;19.33;;;12.70;;
56943;SDS011;42848;42.524;12.052;2022-12-22T02:06:52;18.77;;;12.80;;
56943;SDS011;42848;42.524;12.052;2022-12-22T02:12:42;18.30;;;12.45;;
56943;SDS011;42848;42.524;12.052;2022-12-22T02:15:29;19.00;;;12.77;;
56943;SDS011;42848;42.524;12.052;2022-12-22T02:18:25;17.38;;;12.13;;
56943;SDS011;42848;42.524;12.052;2022-12-22T02:21:19;20.83;;;12.63;;
56943;SDS011;42848;42.524;12.052;2022-12-22T02:24:31;21.15;;;12.50;;
56943;SDS011;42848;42.524;12.052;2022-12-22T02:27:22;18.33;;;11.88;;
56943;SDS011;42848;42.524;12.052;2022-12-22T02:30:08;19.20;;;12.65;;
56943;SDS011;42848;42.524;12.052;2022-12-22T02:32:53;19.38;;;11.73;;
56943;SDS011;42848;42.524;12.052;2022-12-22T02:35:44;17.13;;;11.30;;
56943;SDS011;42848;42.524;12.052;2022-12-22T02:42:02;18.42;;;12.25;;
56943;SDS011;42848;42.524;12.052;2022-12-22T02:48:15;17.70;;;11.98;;
56943;SDS011;42848;42.524;12.052;2022-12-22T02:51:10;18.05;;;12.10;;
56943;SDS011;42848;42.524;12.052;2022-12-22T02:54:00;17.83;;;11.75;;
56943;SDS011;42848;42.524;12.052;2022-12-22T02:56:46;17.80;;;12.57;;
56943;SDS011;42848;42.524;12.052;2022-12-22T02:59:30;18.92;;;11.95;;
56943;SDS011;42848;42.524;12.052;2022-12-22T03:02:15;17.40;;;12.25;;
56943;SDS011;42848;42.524;12.052;2022-12-22T03:04:58;18.17;;;12.55;;
56943;SDS011;42848;42.524;12.052;2022-12-22T03:07:42;17.77;;;12.48;;
56943;SDS011;42848;42.524;12.052;2022-12-22T03:10:26;18.40;;;12.18;;
56943;SDS011;42848;42.524;12.052;2022-12-22T03:13:10;17.27;;;11.88;;
56943;SDS011;42848;42.524;12.052;2022-12-22T03:15:54;22.50;;;14.82;;
56943;SDS011;42848;42.524;12.052;2022-12-22T03:18:38;20.70;;;13.88;;
56943;SDS011;42848;42.524;12.052;2022-12-22T03:21:22;27.30;;;17.98;;
56943;SDS011;42848;42.524;12.052;2022-12-22T03:24:06;23.85;;;16.00;;
56943;SDS011;42848;42.524;12.052;2022-12-22T03:26:51;21.30;;;13.90;;
56943;SDS011;42848;42.524;12.052;2022-12-22T03:29:16;20.23;;;12.95;;
56943;SDS011;42848;42.524;12.052;2022-12-22T03:31:42;20.55;;;14.18;;
56943;SDS011;42848;42.524;12.052;2022-12-22T03:34:08;23.45;;;15.05;;
56943;SDS011;42848;42.524;12.052;2022-12-22T03:36:33;18.23;;;12.25;;
56943;SDS011;42848;42.524;12.052;2022-12-22T03:38:59;17.80;;;12.38;;
56943;SDS011;42848;42.524;12.052;2022-12-22T03:41:25;18.63;;;12.52;;
56943;SDS011;42848;42.524;12.052;2022-12-22T03:44:09;17.35;;;11.65;;
56943;SDS011;42848;42.524;12.052;2022-12-22T03:46:53;17.75;;;11.57;;
56943;SDS011;42848;42.524;12.052;2022-12-22T03:49:19;17.50;;;11.75;;
56943;SDS011;42848;42.524;12.052;2022-12-22T03:51:47;16.92;;;11.00;;
56943;SDS011;42848;42.524;12.052;2022-12-22T03:54:15;18.02;;;12.18;;
56943;SDS011;42848;42.524;12.052;2022-12-22T03:56:43;18.02;;;11.77;;
56943;SDS011;42848;42.524;12.052;2022-12-22T03:59:09;17.00;;;11.48;;
56943;SDS011;42848;42.524;12.052;2022-12-22T04:01:37;20.20;;;12.48;;
56943;SDS011;42848;42.524;12.052;2022-12-22T04:04:05;17.52;;;11.90;;
56943;SDS011;42848;42.524;12.052;2022-12-22T04:06:31;18.52;;;11.98;;
56943;SDS011;42848;42.524;12.052;2022-12-22T04:08:56;19.35;;;13.07;;
56943;SDS011;42848;42.524;12.052;2022-12-22T04:11:22;18.65;;;12.60;;
56943;SDS011;42848;42.524;12.052;2022-12-22T04:14:06;17.90;;;11.20;;
56943;SDS011;42848;42.524;12.052;2022-12-22T04:16:32;20.05;;;12.73;;
56943;SDS011;42848;42.524;12.052;2022-12-22T04:18:58;17.13;;;11.68;;
56943;SDS011;42848;42.524;12.052;2022-12-22T04:21:23;16.75;;;11.13;;
56943;SDS011;42848;42.524;12.052;2022-12-22T04:23:49;18.13;;;11.15;;
56943;SDS011;42848;42.524;12.052;2022-12-22T04:26:16;17.45;;;11.63;;
56943;SDS011;42848;42.524;12.052;2022-12-22T04:28:43;15.68;;;11.40;;
56943;SDS011;42848;42.524;12.052;2022-12-22T04:31:08;17.55;;;11.10;;
56943;SDS011;42848;42.524;12.052;2022-12-22T04:33:34;17.08;;;11.48;;
56943;SDS011;42848;42.524;12.052;2022-12-22T04:35:59;17.42;;;11.82;;
56943;SDS011;42848;42.524;12.052;2022-12-22T04:38:25;15.68;;;11.15;;
56943;SDS011;42848;42.524;12.052;2022-12-22T04:40:51;17.77;;;11.70;;
56943;SDS011;42848;42.524;12.052;2022-12-22T04:43:17;17.50;;;11.75;;
56943;SDS011;42848;42.524;12.052;2022-12-22T04:45:43;17.15;;;11.52;;
56943;SDS011;42848;42.524;12.052;2022-12-22T04:48:09;17.27;;;11.50;;
56943;SDS011;42848;42.524;12.052;2022-12-22T04:50:34;17.67;;;12.48;;
56943;SDS011;42848;42.524;12.052;2022-12-22T04:53:00;18.17;;;12.50;;
56943;SDS011;42848;42.524;12.052;2022-12-22T04:55:27;19.17;;;13.02;;
56943;SDS011;42848;42.524;12.052;2022-12-22T04:57:52;23.35;;;15.07;;
56943;SDS011;42848;42.524;12.052;2022-12-22T05:00:18;21.00;;;13.50;;
56943;SDS011;42848;42.524;12.052;2022-12-22T05:02:44;22.27;;;14.02;;
56943;SDS011;42848;42.524;12.052;2022-12-22T05:05:09;19.88;;;12.20;;
56943;SDS011;42848;42.524;12.052;2022-12-22T05:07:35;18.83;;;12.60;;
56943;SDS011;42848;42.524;12.052;2022-12-22T05:10:02;20.35;;;12.80;;
56943;SDS011;42848;42.524;12.052;2022-12-22T05:12:30;19.23;;;12.13;;
56943;SDS011;42848;42.524;12.052;2022-12-22T05:15:15;19.65;;;13.18;;
56943;SDS011;42848;42.524;12.052;2022-12-22T05:17:40;19.33;;;12.40;;
56943;SDS011;42848;42.524;12.052;2022-12-22T05:20:06;21.05;;;13.27;;
56943;SDS011;42848;42.524;12.052;2022-12-22T05:22:32;21.25;;;13.23;;
56943;SDS011;42848;42.524;12.052;2022-12-22T05:24:58;19.73;;;12.18;;
56943;SDS011;42848;42.524;12.052;2022-12-22T05:27:24;18.88;;;12.43;;
56943;SDS011;42848;42.524;12.052;2022-12-22T05:29:49;17.55;;;11.68;;
56943;SDS011;42848;42.524;12.052;2022-12-22T05:32:15;18.80;;;11.95;;
56943;SDS011;42848;42.524;12.052;2022-12-22T05:34:40;17.65;;;11.73;;
56943;SDS011;42848;42.524;12.052;2022-12-22T05:37:06;19.05;;;12.38;;
56943;SDS011;42848;42.524;12.052;2022-12-22T05:39:32;21.63;;;12.43;;
56943;SDS011;42848;42.524;12.052;2022-12-22T05:41:57;18.20;;;11.88;;
56943;SDS011;42848;42.524;12.052;2022-12-22T05:44:23;20.15;;;11.68;;
56943;SDS011;42848;42.524;12.052;2022-12-22T05:46:49;18.75;;;12.40;;
56943;SDS011;42848;42.524;12.052;2022-12-22T05:49:19;18.30;;;12.50;;
56943;SDS011;42848;42.524;12.052;2022-12-22T05:51:45;19.77;;;12.27;;
56943;SDS011;42848;42.524;12.052;2022-12-22T05:54:11;18.33;;;11.98;;
56943;SDS011;42848;42.524;12.052;2022-12-22T05:56:36;18.48;;;11.73;;
56943;SDS011;42848;42.524;12.052;2022-12-22T05:59:02;18.85;;;12.00;;
56943;SDS011;42848;42.524;12.052;2022-12-22T06:01:28;17.83;;;11.60;;
56943;SDS011;42848;42.524;12.052;2022-12-22T06:03:54;21.33;;;12.50;;
56943;SDS011;42848;42.524;12.052;2022-12-22T06:06:19;21.33;;;12.10;;
56943;SDS011;42848;42.524;12.052;2022-12-22T06:08:45;18.67;;;11.85;;
56943;SDS011;42848;42.524;12.052;2022-12-22T06:11:11;20.10;;;12.13;;
56943;SDS011;42848;42.524;12.052;2022-12-22T06:13:37;33.40;;;21.05;;
56943;SDS011;42848;42.524;12.052;2022-12-22T06:16:02;28.25;;;17.40;;
56943;SDS011;42848;42.524;12.052;2022-12-22T06:18:28;27.58;;;17.85;;
56943;SDS011;42848;42.524;12.052;2022-12-22T06:20:54;24.67;;;14.88;;
56943;SDS011;42848;42.524;12.052;2022-12-22T06:23:20;21.80;;;12.60;;
56943;SDS011;42848;42.524;12.052;2022-12-22T06:25:55;32.78;;;19.80;;
56943;SDS011;42848;42.524;12.052;2022-12-22T06:28:22;20.75;;;12.88;;
56943;SDS011;42848;42.524;12.052;2022-12-22T06:30:48;30.70;;;17.50;;
56943;SDS011;42848;42.524;12.052;2022-12-22T06:33:14;35.28;;;19.67;;
56943;SDS011;42848;42.524;12.052;2022-12-22T06:35:40;32.63;;;19.10;;
56943;SDS011;42848;42.524;12.052;2022-12-22T06:38:05;25.15;;;14.82;;
56943;SDS011;42848;42.524;12.052;2022-12-22T06:40:31;25.35;;;13.75;;
56943;SDS011;42848;42.524;12.052;2022-12-22T06:42:57;33.47;;;20.73;;
56943;SDS011;42848;42.524;12.052;2022-12-22T06:45:38;26.25;;;16.10;;
56943;SDS011;42848;42.524;12.052;2022-12-22T06:48:06;22.88;;;14.20;;
56943;SDS011;42848;42.524;12.052;2022-12-22T06:50:33;25.75;;;15.18;;
56943;SDS011;42848;42.524;12.052;2022-12-22T06:52:59;39.63;;;24.60;;
56943;SDS011;42848;42.524;12.052;2022-12-22T06:55:25;27.38;;;18.13;;
56943;SDS011;42848;42.524;12.052;2022-12-22T06:57:50;19.27;;;12.40;;
56943;SDS011;42848;42.524;12.052;2022-12-22T07:00:16;22.90;;;13.82;;
56943;SDS011;42848;42.524;12.052;2022-12-22T07:02:42;24.48;;;13.48;;
56943;SDS011;42848;42.524;12.052;2022-12-22T07:05:08;23.50;;;13.27;;
56943;SDS011;42848;42.524;12.052;2022-12-22T07:07:33;23.98;;;13.90;;
56943;SDS011;42848;42.524;12.052;2022-12-22T07:09:59;22.67;;;13.73;;
56943;SDS011;42848;42.524;12.052;2022-12-22T07:12:25;21.98;;;12.23;;
56943;SDS011;42848;42.524;12.052;2022-12-22T07:14:51;20.25;;;12.45;;
56943;SDS011;42848;42.524;12.052;2022-12-22T07:17:16;20.38;;;12.30;;
56943;SDS011;42848;42.524;12.052;2022-12-22T07:19:42;22.73;;;13.13;;
56943;SDS011;42848;42.524;12.052;2022-12-22T07:22:08;20.55;;;11.77;;
56943;SDS011;42848;42.524;12.052;2022-12-22T07:24:34;21.60;;;12.52;;
56943;SDS011;42848;42.524;12.052;2022-12-22T07:27:00;23.63;;;14.07;;
56943;SDS011;42848;42.524;12.052;2022-12-22T07:29:25;20.42;;;12.88;;
56943;SDS011;42848;42.524;12.052;2022-12-22T07:31:51;20.77;;;12.20;;
56943;SDS011;42848;42.524;12.052;2022-12-22T07:34:17;22.08;;;13.23;;
56943;SDS011;42848;42.524;12.052;2022-12-22T07:36:42;34.38;;;22.42;;
56943;SDS011;42848;42.524;12.052;2022-12-22T07:39:08;36.33;;;20.40;;
56943;SDS011;42848;42.524;12.052;2022-12-22T07:41:34;20.73;;;12.15;;
56943;SDS011;42848;42.524;12.052;2022-12-22T07:44:18;22.40;;;14.40;;
56943;SDS011;42848;42.524;12.052;2022-12-22T07:46:43;29.08;;;16.08;;
56943;SDS011;42848;42.524;12.052;2022-12-22T07:49:10;27.77;;;16.13;;
56943;SDS011;42848;42.524;12.052;2022-12-22T07:51:57;22.25;;;13.07;;
56943;SDS011;42848;42.524;12.052;2022-12-22T07:54:24;18.98;;;12.00;;
56943;SDS011;42848;42.524;12.052;2022-12-22T07:56:51;17.90;;;12.27;;
56943;SDS011;42848;42.524;12.052;2022-12-22T07:59:16;17.25;;;11.60;;
56943;SDS011;42848;42.524;12.052;2022-12-22T08:01:42;18.02;;;11.48;;
56943;SDS011;42848;42.524;12.052;2022-12-22T08:04:09;18.88;;;11.68;;
56943;SDS011;42848;42.524;12.052;2022-12-22T08:06:36;18.80;;;11.10;;
56943;SDS011;42848;42.524;12.052;2022-12-22T08:09:03;20.88;;;13.68;;
56943;SDS011;42848;42.524;12.052;2022-12-22T08:11:30;19.75;;;11.90;;
56943;SDS011;42848;42.524;12.052;2022-12-22T08:13:55;17.30;;;10.80;;
56943;SDS011;42848;42.524;12.052;2022-12-22T08:16:21;18.58;;;11.20;;
56943;SDS011;42848;42.524;12.052;2022-12-22T08:18:47;18.10;;;11.70;;
56943;SDS011;42848;42.524;12.052;2022-12-22T08:21:13;20.55;;;13.77;;
56943;SDS011;42848;42.524;12.052;2022-12-22T08:23:39;34.58;;;20.77;;
56943;SDS011;42848;42.524;12.052;2022-12-22T08:28:48;16.95;;;11.18;;
56943;SDS011;42848;42.524;12.052;2022-12-22T08:31:18;16.30;;;10.88;;
56943;SDS011;42848;42.524;12.052;2022-12-22T08:33:46;16.85;;;11.15;;
56943;SDS011;42848;42.524;12.052;2022-12-22T08:36:12;16.92;;;11.40;;
56943;SDS011;42848;42.524;12.052;2022-12-22T08:38:38;23.67;;;19.63;;
56943;SDS011;42848;42.524;12.052;2022-12-22T08:41:07;21.25;;;15.07;;
56943;SDS011;42848;42.524;12.052;2022-12-22T08:43:34;18.60;;;13.40;;
56943;SDS011;42848;42.524;12.052;2022-12-22T08:46:00;19.85;;;13.07;;
56943;SDS011;42848;42.524;12.052;2022-12-22T08:48:26;19.15;;;12.98;;
56943;SDS011;42848;42.524;12.052;2022-12-22T08:50:52;18.40;;;12.10;;
56943;SDS011;42848;42.524;12.052;2022-12-22T08:53:17;16.75;;;10.98;;
56943;SDS011;42848;42.524;12.052;2022-12-22T08:55:49;14.93;;;10.30;;
56943;SDS011;42848;42.524;12.052;2022-12-22T08:58:16;15.05;;;10.52;;
56943;SDS011;42848;42.524;12.052;2022-12-22T09:00:42;14.23;;;10.30;;
56943;SDS011;42848;42.524;12.052;2022-12-22T09:03:08;18.23;;;11.35;;
56943;SDS011;42848;42.524;12.052;2022-12-22T09:05:34;17.15;;;10.88;;
56943;SDS011;42848;42.524;12.052;2022-12-22T09:08:02;13.60;;;9.98;;
56943;SDS011;42848;42.524;12.052;2022-12-22T09:10:29;13.75;;;9.50;;
56943;SDS011;42848;42.524;12.052;2022-12-22T09:12:55;13.07;;;9.50;;
56943;SDS011;42848;42.524;12.052;2022-12-22T09:15:21;13.52;;;8.88;;
56943;SDS011;42848;42.524;12.052;2022-12-22T09:17:47;11.13;;;7.28;;
56943;SDS011;42848;42.524;12.052;2022-12-22T09:20:12;11.52;;;8.13;;
56943;SDS011;42848;42.524;12.052;2022-12-22T09:22:38;12.27;;;7.90;;
56943;SDS011;42848;42.524;12.052;2022-12-22T09:25:04;12.43;;;8.70;;
56943;SDS011;42848;42.524;12.052;2022-12-22T09:27:30;11.68;;;8.48;;
56943;SDS011;42848;42.524;12.052;2022-12-22T09:29:56;12.07;;;8.63;;
56943;SDS011;42848;42.524;12.052;2022-12-22T09:32:22;14.40;;;8.95;;
56943;SDS011;42848;42.524;12.052;2022-12-22T09:34:47;14.95;;;8.82;;
56943;SDS011;42848;42.524;12.052;2022-12-22T09:37:14;18.23;;;12.55;;
56943;SDS011;42848;42.524;12.052;2022-12-22T09:39:41;22.38;;;13.93;;
56943;SDS011;42848;42.524;12.052;2022-12-22T09:42:14;16.73;;;11.85;;
56943;SDS011;42848;42.524;12.052;2022-12-22T09:44:46;12.30;;;9.18;;
56943;SDS011;42848;42.524;12.052;2022-12-22T09:50:00;22.95;;;15.70;;
56943;SDS011;42848;42.524;12.052;2022-12-22T09:52:29;30.73;;;22.33;;
56943;SDS011;42848;42.524;12.052;2022-12-22T09:57:48;13.45;;;9.55;;
56943;SDS011;42848;42.524;12.052;2022-12-22T10:00:14;12.07;;;8.70;;
56943;SDS011;42848;42.524;12.052;2022-12-22T10:02:45;10.90;;;7.43;;
56943;SDS011;42848;42.524;12.052;2022-12-22T10:05:22;10.23;;;6.60;;
56943;SDS011;42848;42.524;12.052;2022-12-22T10:08:45;9.27;;;6.55;;
56943;SDS011;42848;42.524;12.052;2022-12-22T10:11:11;9.40;;;6.93;;
56943;SDS011;42848;42.524;12.052;2022-12-22T10:13:41;9.95;;;7.00;;
56943;SDS011;42848;42.524;12.052;2022-12-22T10:16:21;10.77;;;6.22;;
56943;SDS011;42848;42.524;12.052;2022-12-22T10:19:09;8.95;;;6.45;;
56943;SDS011;42848;42.524;12.052;2022-12-22T10:21:36;9.63;;;6.40;;
56943;SDS011;42848;42.524;12.052;2022-12-22T10:24:20;9.52;;;6.53;;
56943;SDS011;42848;42.524;12.052;2022-12-22T10:26:58;8.95;;;5.90;;
56943;SDS011;42848;42.524;12.052;2022-12-22T10:29:24;9.82;;;6.78;;
56943;SDS011;42848;42.524;12.052;2022-12-22T10:32:04;9.85;;;6.47;;
56943;SDS011;42848;42.524;12.052;2022-12-22T10:34:42;9.50;;;6.28;;
56943;SDS011;42848;42.524;12.052;2022-12-22T10:37:36;9.75;;;6.47;;
56943;SDS011;42848;42.524;12.052;2022-12-22T10:40:14;9.57;;;6.35;;
56943;SDS011;42848;42.524;12.052;2022-12-22T10:42:45;8.98;;;6.47;;
56943;SDS011;42848;42.524;12.052;2022-12-22T10:45:18;10.27;;;7.07;;
56943;SDS011;42848;42.524;12.052;2022-12-22T10:47:47;10.07;;;6.70;;
56943;SDS011;42848;42.524;12.052;2022-12-22T10:50:16;10.13;;;6.95;;
56943;SDS011;42848;42.524;12.052;2022-12-22T10:52:48;9.23;;;6.80;;
56943;SDS011;42848;42.524;12.052;2022-12-22T10:55:20;12.55;;;6.90;;
56943;SDS011;42848;42.524;12.052;2022-12-22T11:00:33;10.23;;;6.93;;
56943;SDS011;42848;42.524;12.052;2022-12-22T11:03:01;10.65;;;8.00;;
56943;SDS011;42848;42.524;12.052;2022-12-22T11:05:28;13.43;;;9.57;;
56943;SDS011;42848;42.524;12.052;2022-12-22T11:07:56;15.50;;;11.43;;
56943;SDS011;42848;42.524;12.052;2022-12-22T11:10:26;14.55;;;10.10;;
56943;SDS011;42848;42.524;12.052;2022-12-22T11:13:13;13.52;;;9.30;;
56943;SDS011;42848;42.524;12.052;2022-12-22T11:21:41;13.23;;;10.05;;
56943;SDS011;42848;42.524;12.052;2022-12-22T11:27:16;14.57;;;10.02;;
56943;SDS011;42848;42.524;12.052;2022-12-22T11:30:07;12.27;;;9.68;;
56943;SDS011;42848;42.524;12.052;2022-12-22T11:32:48;12.65;;;8.70;;
56943;SDS011;42848;42.524;12.052;2022-12-22T11:35:34;11.20;;;8.00;;
56943;SDS011;42848;42.524;12.052;2022-12-22T11:41:05;12.85;;;8.18;;
56943;SDS011;42848;42.524;12.052;2022-12-22T11:43:54;14.73;;;9.30;;
56943;SDS011;42848;42.524;12.052;2022-12-22T11:46:52;12.80;;;9.90;;
56943;SDS011;42848;42.524;12.052;2022-12-22T11:52:12;13.07;;;9.10;;
56943;SDS011;42848;42.524;12.052;2022-12-22T11:54:58;17.50;;;11.98;;
56943;SDS011;42848;42.524;12.052;2022-12-22T12:00:22;13.77;;;8.48;;
56943;SDS011;42848;42.524;12.052;2022-12-22T12:11:32;10.55;;;7.38;;
56943;SDS011;42848;42.524;12.052;2022-12-22T12:14:20;13.57;;;9.02;;
56943;SDS011;42848;42.524;12.052;2022-12-22T12:28:08;11.80;;;7.97;;
56943;SDS011;42848;42.524;12.052;2022-12-22T12:30:44;11.68;;;6.72;;
56943;SDS011;42848;42.524;12.052;2022-12-22T12:33:15;10.88;;;7.25;;
56943;SDS011;42848;42.524;12.052;2022-12-22T12:41:26;9.13;;;6.18;;
56943;SDS011;42848;42.524;12.052;2022-12-22T12:43:52;19.85;;;10.90;;
56943;SDS011;42848;42.524;12.052;2022-12-22T12:49:04;14.27;;;10.20;;
56943;SDS011;42848;42.524;12.052;2022-12-22T12:51:46;15.18;;;10.13;;
56943;SDS011;42848;42.524;12.052;2022-12-22T12:54:20;13.95;;;9.38;;
56943;SDS011;42848;42.524;12.052;2022-12-22T13:10:33;8.90;;;6.40;;
56943;SDS011;42848;42.524;12.052;2022-12-22T13:13:02;13.43;;;9.93;;
56943;SDS011;42848;42.524;12.052;2022-12-22T13:15:32;13.80;;;9.63;;
56943;SDS011;42848;42.524;12.052;2022-12-22T13:18:01;17.35;;;11.90;;
56943;SDS011;42848;42.524;12.052;2022-12-22T13:20:31;16.42;;;12.00;;
56943;SDS011;42848;42.524;12.052;2022-12-22T13:23:00;14.80;;;10.70;;
56943;SDS011;42848;42.524;12.052;2022-12-22T13:25:41;16.90;;;10.27;;
56943;SDS011;42848;42.524;12.052;2022-12-22T13:28:16;13.18;;;10.50;;
56943;SDS011;42848;42.524;12.052;2022-12-22T13:30:47;14.52;;;10.30;;
56943;SDS011;42848;42.524;12.052;2022-12-22T13:33:18;17.15;;;13.27;;
56943;SDS011;42848;42.524;12.052;2022-12-22T13:35:48;23.30;;;17.30;;
56943;SDS011;42848;42.524;12.052;2022-12-22T13:38:34;36.22;;;25.08;;
56943;SDS011;42848;42.524;12.052;2022-12-22T13:41:12;34.55;;;23.95;;
56943;SDS011;42848;42.524;12.052;2022-12-22T13:43:43;33.75;;;24.63;;
56943;SDS011;42848;42.524;12.052;2022-12-22T13:46:17;36.38;;;26.40;;
56943;SDS011;42848;42.524;12.052;2022-12-22T13:48:44;22.27;;;15.75;;
56943;SDS011;42848;42.524;12.052;2022-12-22T13:51:20;21.13;;;15.65;;
56943;SDS011;42848;42.524;12.052;2022-12-22T13:53:49;18.52;;;12.02;;
56943;SDS011;42848;42.524;12.052;2022-12-22T13:56:20;16.15;;;11.73;;
56943;SDS011;42848;42.524;12.052;2022-12-22T13:58:56;16.75;;;12.65;;
56943;SDS011;42848;42.524;12.052;2022-12-22T14:01:23;19.52;;;13.13;;
56943;SDS011;42848;42.524;12.052;2022-12-22T14:03:50;19.10;;;14.18;;
56943;SDS011;42848;42.524;12.052;2022-12-22T14:06:29;19.73;;;14.07;;
56943;SDS011;42848;42.524;12.052;2022-12-22T14:11:40;18.75;;;13.45;;
56943;SDS011;42848;42.524;12.052;2022-12-22T14:14:08;24.92;;;18.80;;
56943;SDS011;42848;42.524;12.052;2022-12-22T14:16:47;24.20;;;17.73;;
56943;SDS011;42848;42.524;12.052;2022-12-22T14:19:16;23.65;;;17.52;;
56943;SDS011;42848;42.524;12.052;2022-12-22T14:21:42;27.40;;;20.48;;
56943;SDS011;42848;42.524;12.052;2022-12-22T14:24:15;21.00;;;16.02;;
56943;SDS011;42848;42.524;12.052;2022-12-22T14:26:45;19.73;;;14.05;;
56943;SDS011;42848;42.524;12.052;2022-12-22T14:29:16;18.25;;;13.65;;
56943;SDS011;42848;42.524;12.052;2022-12-22T14:31:57;15.48;;;12.23;;
56943;SDS011;42848;42.524;12.052;2022-12-22T14:34:28;24.27;;;18.50;;
56943;SDS011;42848;42.524;12.052;2022-12-22T14:36:58;21.15;;;16.20;;
56943;SDS011;42848;42.524;12.052;2022-12-22T14:39:26;24.10;;;18.95;;
56943;SDS011;42848;42.524;12.052;2022-12-22T14:41:58;17.58;;;14.00;;
56943;SDS011;42848;42.524;12.052;2022-12-22T14:44:28;17.60;;;12.38;;
56943;SDS011;42848;42.524;12.052;2022-12-22T14:49:43;19.52;;;13.70;;
56943;SDS011;42848;42.524;12.052;2022-12-22T14:54:57;18.27;;;13.60;;
56943;SDS011;42848;42.524;12.052;2022-12-22T14:57:31;21.83;;;14.27;;
56943;SDS011;42848;42.524;12.052;2022-12-22T15:02:52;21.75;;;16.92;;
56943;SDS011;42848;42.524;12.052;2022-12-22T15:05:25;23.83;;;17.85;;
56943;SDS011;42848;42.524;12.052;2022-12-22T15:07:54;21.40;;;16.13;;
56943;SDS011;42848;42.524;12.052;2022-12-22T15:10:23;24.70;;;17.83;;
56943;SDS011;42848;42.524;12.052;2022-12-22T15:12:54;28.20;;;20.23;;
56943;SDS011;42848;42.524;12.052;2022-12-22T15:15:27;32.25;;;20.80;;
56943;SDS011;42848;42.524;12.052;2022-12-22T15:17:55;27.08;;;18.65;;
56943;SDS011;42848;42.524;12.052;2022-12-22T15:20:23;28.20;;;20.02;;
56943;SDS011;42848;42.524;12.052;2022-12-22T15:22:51;35.42;;;25.45;;
56943;SDS011;42848;42.524;12.052;2022-12-22T15:25:18;55.55;;;38.80;;
56943;SDS011;42848;42.524;12.052;2022-12-22T15:27:49;33.45;;;24.88;;
56943;SDS011;42848;42.524;12.052;2022-12-22T15:30:17;28.85;;;20.65;;
56943;SDS011;42848;42.524;12.052;2022-12-22T15:32:44;34.72;;;24.23;;
56943;SDS011;42848;42.524;12.052;2022-12-22T15:37:40;40.60;;;28.40;;
56943;SDS011;42848;42.524;12.052;2022-12-22T15:40:11;40.05;;;28.08;;
56943;SDS011;42848;42.524;12.052;2022-12-22T15:42:42;29.20;;;20.38;;
56943;SDS011;42848;42.524;12.052;2022-12-22T15:45:08;31.15;;;22.75;;
56943;SDS011;42848;42.524;12.052;2022-12-22T15:47:34;33.88;;;24.77;;
56943;SDS011;42848;42.524;12.052;2022-12-22T15:50:00;40.40;;;28.73;;
56943;SDS011;42848;42.524;12.052;2022-12-22T15:52:26;41.70;;;28.05;;
56943;SDS011;42848;42.524;12.052;2022-12-22T15:54:52;64.38;;;41.75;;
56943;SDS011;42848;42.524;12.052;2022-12-22T15:57:17;67.18;;;43.38;;
56943;SDS011;42848;42.524;12.052;2022-12-22T15:59:43;63.00;;;41.13;;
56943;SDS011;42848;42.524;12.052;2022-12-22T16:02:12;54.75;;;39.40;;
56943;SDS011;42848;42.524;12.052;2022-12-22T16:04:37;50.53;;;38.53;;
56943;SDS011;42848;42.524;12.052;2022-12-22T16:07:03;53.15;;;39.90;;
56943;SDS011;42848;42.524;12.052;2022-12-22T16:09:38;30.85;;;23.15;;
56943;SDS011;42848;42.524;12.052;2022-12-22T16:12:15;28.05;;;20.80;;
56943;SDS011;42848;42.524;12.052;2022-12-22T16:14:43;32.78;;;22.27;;
56943;SDS011;42848;42.524;12.052;2022-12-22T16:17:21;33.50;;;23.98;;
56943;SDS011;42848;42.524;12.052;2022-12-22T16:19:50;36.15;;;25.35;;
56943;SDS011;42848;42.524;12.052;2022-12-22T16:22:16;35.30;;;24.70;;
56943;SDS011;42848;42.524;12.052;2022-12-22T16:24:45;34.75;;;26.02;;